Time;durP1;ratioP1;P1;durP2;ratioP2;P2;SDS_P1;SDS_P2;PMS_P1;PMS_P2;Temp;Humidity;BMP_temperature;BMP_pressure;BME280_temperature;BME280_humidity;BME280_pressure;Samples;Min_cycle;Max_cycle;Signal;HPM_P1;HPM_P2
2023/04/26 00:01:41;;;;;;;7.45;1.13;;;3.80;99.90;;;;;;5046463;28;20047;-80
2023/04/26 00:04:07;;;;;;;6.45;1.63;;;3.80;99.90;;;;;;5046636;28;20051;-79
2023/04/26 00:06:34;;;;;;;11.55;1.60;;;3.70;99.90;;;;;;5064022;28;20033;-80
2023/04/26 00:08:59;;;;;;;6.05;1.67;;;3.80;99.90;;;;;;5045807;28;20102;-79
2023/04/26 00:11:25;;;;;;;5.95;1.20;;;3.70;99.90;;;;;;5049282;28;20434;-80
2023/04/26 00:13:51;;;;;;;8.63;1.45;;;3.70;99.90;;;;;;5045026;28;20037;-81
2023/04/26 00:16:17;;;;;;;7.30;2.22;;;3.70;99.90;;;;;;5047841;28;20037;-81
2023/04/26 00:18:45;;;;;;;8.00;1.52;;;3.80;99.90;;;;;;5049864;28;20407;-80
2023/04/26 00:21:11;;;;;;;12.38;2.00;;;3.80;99.90;;;;;;5046612;28;20049;-80
2023/04/26 00:23:36;;;;;;;7.63;1.90;;;3.80;99.90;;;;;;5031588;28;20710;-78
2023/04/26 00:26:03;;;;;;;8.50;1.70;;;3.90;99.90;;;;;;5048067;28;20049;-80
2023/04/26 00:28:28;;;;;;;8.18;1.77;;;3.90;99.90;;;;;;5044801;28;20056;-79
2023/04/26 00:30:56;;;;;;;8.30;1.63;;;4.00;99.90;;;;;;5080423;28;20049;-80
2023/04/26 00:33:22;;;;;;;12.95;2.55;;;4.00;99.90;;;;;;5044287;28;20462;-80
2023/04/26 00:35:49;;;;;;;7.20;1.95;;;4.10;99.90;;;;;;5044039;28;20044;-80
2023/04/26 00:38:14;;;;;;;9.85;2.05;;;4.10;99.90;;;;;;5078828;28;20053;-80
2023/04/26 00:40:40;;;;;;;6.68;1.60;;;4.20;99.90;;;;;;5045235;28;20510;-80
2023/04/26 00:43:06;;;;;;;8.27;2.55;;;4.20;99.90;;;;;;5060118;28;20059;-80
2023/04/26 00:45:32;;;;;;;12.00;1.75;;;4.20;99.90;;;;;;5044385;28;20033;-80
2023/04/26 00:48:01;;;;;;;9.20;1.63;;;4.20;99.90;;;;;;5045674;28;20051;-80
2023/04/26 00:50:27;;;;;;;5.68;1.58;;;4.30;99.90;;;;;;5063027;28;20732;-80
2023/04/26 00:52:54;;;;;;;11.98;2.05;;;4.30;99.90;;;;;;5046158;28;20542;-80
2023/04/26 00:55:21;;;;;;;6.45;1.77;;;4.30;99.90;;;;;;5047130;28;20036;-78
2023/04/26 00:57:47;;;;;;;6.57;1.52;;;4.30;99.90;;;;;;5047730;28;20129;-80
2023/04/26 01:00:15;;;;;;;6.20;1.30;;;4.30;99.90;;;;;;5046081;28;20116;-80
2023/04/26 01:02:41;;;;;;;8.35;1.20;;;4.20;99.90;;;;;;5040600;28;20077;-80
2023/04/26 01:05:07;;;;;;;7.60;1.40;;;4.20;99.90;;;;;;5043321;28;20037;-80
2023/04/26 01:07:35;;;;;;;3.75;1.65;;;4.10;99.90;;;;;;5046137;28;20041;-81
2023/04/26 01:10:03;;;;;;;3.42;1.50;;;4.10;99.90;;;;;;5033709;28;20044;-80
2023/04/26 01:12:29;;;;;;;8.27;1.75;;;4.10;99.90;;;;;;5045945;28;20033;-80
2023/04/26 01:14:56;;;;;;;4.63;1.23;;;4.00;99.90;;;;;;5048031;28;20045;-80
2023/04/26 01:17:22;;;;;;;5.45;1.83;;;4.00;99.90;;;;;;5045972;28;20053;-80
2023/04/26 01:19:48;;;;;;;7.07;1.65;;;4.00;99.90;;;;;;5046298;28;20056;-80
2023/04/26 01:22:13;;;;;;;5.40;1.40;;;3.90;99.90;;;;;;5045053;28;20041;-78
2023/04/26 01:24:42;;;;;;;7.28;1.50;;;3.90;99.90;;;;;;5049249;28;20105;-80
2023/04/26 01:27:07;;;;;;;11.48;1.77;;;3.80;99.90;;;;;;5011848;28;1024705;-80
2023/04/26 01:29:34;;;;;;;9.55;1.30;;;3.80;99.90;;;;;;5047219;28;20044;-81
2023/04/26 01:31:59;;;;;;;6.90;1.60;;;3.80;99.90;;;;;;5046313;28;20049;-80
2023/04/26 01:34:25;;;;;;;6.00;1.35;;;3.80;99.90;;;;;;5048535;28;20040;-79
2023/04/26 01:36:51;;;;;;;9.35;2.33;;;3.80;99.90;;;;;;5048762;28;20040;-80
2023/04/26 01:39:16;;;;;;;16.15;2.42;;;3.70;99.90;;;;;;5045656;28;20641;-80
2023/04/26 01:41:42;;;;;;;6.57;1.40;;;3.80;99.90;;;;;;5048419;28;20032;-80
2023/04/26 01:44:07;;;;;;;6.68;1.80;;;3.70;99.90;;;;;;5043064;28;20083;-80
2023/04/26 01:46:33;;;;;;;7.55;1.30;;;3.70;99.90;;;;;;5046349;28;20080;-80
2023/04/26 01:48:58;;;;;;;10.75;1.63;;;3.70;99.90;;;;;;5043942;28;20045;-80
2023/04/26 01:51:24;;;;;;;7.85;1.38;;;3.70;99.90;;;;;;5045275;28;20502;-80
2023/04/26 01:53:50;;;;;;;6.20;1.52;;;3.80;99.90;;;;;;5052394;28;20079;-79
2023/04/26 01:56:17;;;;;;;3.83;1.45;;;3.80;99.90;;;;;;5044177;28;20144;-79
2023/04/26 01:58:42;;;;;;;8.25;1.75;;;3.80;99.90;;;;;;5048114;28;20052;-80
2023/04/26 02:01:08;;;;;;;5.55;1.30;;;3.90;99.90;;;;;;5033036;28;20067;-79
2023/04/26 02:03:35;;;;;;;5.72;1.77;;;3.90;99.90;;;;;;5064548;28;20065;-79
2023/04/26 02:06:01;;;;;;;8.15;1.00;;;4.00;99.90;;;;;;5066303;28;20109;-79
2023/04/26 02:08:26;;;;;;;7.70;1.20;;;4.00;99.90;;;;;;5048547;28;20059;-80
2023/04/26 02:10:52;;;;;;;9.20;1.20;;;4.10;99.90;;;;;;5047649;28;20399;-78
2023/04/26 02:13:18;;;;;;;8.02;1.70;;;4.10;99.90;;;;;;5044803;28;20040;-80
2023/04/26 02:15:48;;;;;;;7.55;1.50;;;4.10;99.90;;;;;;5044884;28;20491;-80
2023/04/26 02:18:14;;;;;;;3.58;1.60;;;4.10;99.90;;;;;;5045416;28;20037;-80
2023/04/26 02:20:44;;;;;;;6.00;1.10;;;4.20;99.90;;;;;;5045624;28;20123;-79
2023/04/26 02:23:10;;;;;;;3.80;1.05;;;4.20;99.90;;;;;;5046714;28;20409;-80
2023/04/26 02:25:36;;;;;;;8.10;1.65;;;4.20;99.90;;;;;;5045020;28;20045;-80
2023/04/26 02:28:02;;;;;;;5.78;1.48;;;4.10;99.90;;;;;;5041599;28;20044;-80
2023/04/26 02:30:29;;;;;;;4.80;1.38;;;4.10;99.90;;;;;;5046145;28;20049;-79
2023/04/26 02:32:55;;;;;;;8.63;1.10;;;4.10;99.90;;;;;;5077082;28;20048;-80
2023/04/26 02:35:21;;;;;;;5.00;1.35;;;4.10;99.90;;;;;;5044986;28;20030;-79
2023/04/26 02:37:47;;;;;;;7.53;1.55;;;4.10;99.90;;;;;;5043311;28;20037;-80
2023/04/26 02:40:14;;;;;;;5.65;1.00;;;4.00;99.90;;;;;;5044707;28;20049;-80
2023/04/26 02:42:39;;;;;;;7.35;0.93;;;4.00;99.90;;;;;;5043509;28;20055;-79
2023/04/26 02:45:06;;;;;;;4.90;1.08;;;4.00;99.90;;;;;;5078083;28;20461;-80
2023/04/26 02:47:32;;;;;;;6.53;1.45;;;4.00;99.90;;;;;;5043436;28;20040;-80
2023/04/26 02:49:58;;;;;;;4.53;0.82;;;4.00;99.90;;;;;;5027614;28;20072;-79
2023/04/26 02:52:23;;;;;;;6.40;1.10;;;4.00;99.90;;;;;;5042804;28;20069;-80
2023/04/26 02:54:49;;;;;;;4.88;1.10;;;4.00;99.90;;;;;;5044741;28;20048;-80
2023/04/26 02:57:15;;;;;;;4.18;1.55;;;4.00;99.90;;;;;;5046279;28;20721;-80
2023/04/26 02:59:42;;;;;;;7.30;1.80;;;3.90;99.90;;;;;;5045694;28;20442;-80
2023/04/26 03:02:08;;;;;;;4.47;1.30;;;3.90;99.90;;;;;;5044267;28;20052;-80
2023/04/26 03:04:34;;;;;;;7.38;1.67;;;3.90;99.90;;;;;;5075028;28;20041;-80
2023/04/26 03:07:02;;;;;;;4.05;1.17;;;3.90;99.90;;;;;;5043996;28;20049;-80
2023/04/26 03:09:27;;;;;;;7.35;1.67;;;3.80;99.90;;;;;;5042530;28;20437;-80
2023/04/26 03:11:53;;;;;;;3.75;1.05;;;3.80;99.90;;;;;;5044806;28;20037;-79
2023/04/26 03:14:18;;;;;;;5.68;1.30;;;3.80;99.90;;;;;;5044377;28;20124;-80
2023/04/26 03:16:44;;;;;;;7.15;1.92;;;3.70;99.90;;;;;;5042881;28;20087;-80
2023/04/26 03:19:09;;;;;;;2.92;1.25;;;3.70;99.90;;;;;;5043644;28;20523;-80
2023/04/26 03:21:35;;;;;;;4.03;1.25;;;3.60;99.90;;;;;;5076992;28;20045;-79
2023/04/26 03:24:01;;;;;;;12.23;1.98;;;3.60;99.90;;;;;;5031848;28;20051;-80
2023/04/26 03:26:27;;;;;;;5.30;2.10;;;3.60;99.90;;;;;;5042542;28;20041;-80
2023/04/26 03:28:52;;;;;;;3.83;1.20;;;3.50;99.90;;;;;;5044003;28;20055;-80
2023/04/26 03:31:20;;;;;;;6.97;1.63;;;3.50;99.90;;;;;;5042076;28;20499;-78
2023/04/26 03:33:45;;;;;;;6.30;1.60;;;3.50;99.90;;;;;;5042800;28;20055;-80
2023/04/26 03:36:11;;;;;;;3.90;1.35;;;3.40;99.90;;;;;;5042236;28;20037;-78
2023/04/26 03:38:37;;;;;;;5.65;1.20;;;3.10;99.90;;;;;;5045307;28;20042;-80
2023/04/26 03:41:03;;;;;;;11.85;1.95;;;3.40;99.90;;;;;;5078373;28;20134;-80
2023/04/26 03:43:28;;;;;;;5.60;1.20;;;3.30;99.90;;;;;;5041975;28;20045;-80
2023/04/26 03:45:54;;;;;;;11.45;1.60;;;3.30;99.90;;;;;;5073952;28;20040;-79
2023/04/26 03:48:19;;;;;;;11.23;1.65;;;3.30;99.90;;;;;;5041213;28;20641;-80
2023/04/26 03:50:45;;;;;;;5.20;1.77;;;3.30;99.90;;;;;;5044280;28;20502;-80
2023/04/26 03:53:11;;;;;;;6.28;1.90;;;3.30;99.90;;;;;;5078813;28;20036;-79
2023/04/26 03:55:37;;;;;;;7.35;2.50;;;3.30;99.90;;;;;;5046179;28;20048;-79
2023/04/26 03:58:06;;;;;;;4.70;1.33;;;3.30;99.90;;;;;;5045936;28;20478;-79
2023/04/26 04:00:38;;;;;;;11.55;1.70;;;3.30;99.90;;;;;;5042936;28;20057;-79
2023/04/26 04:03:05;;;;;;;6.53;1.77;;;3.30;99.90;;;;;;5041178;28;20174;-77
2023/04/26 04:05:31;;;;;;;6.25;1.80;;;3.30;99.90;;;;;;5063019;28;20400;-79
2023/04/26 04:07:57;;;;;;;4.28;1.40;;;3.30;99.90;;;;;;5046962;28;20042;-79
2023/04/26 04:10:22;;;;;;;3.25;1.13;;;3.30;99.90;;;;;;5051691;28;20043;-78
2023/04/26 04:12:49;;;;;;;7.95;1.90;;;3.40;99.90;;;;;;5044587;28;20496;-80
2023/04/26 04:15:15;;;;;;;7.97;2.63;;;3.40;99.90;;;;;;5046667;28;20056;-79
2023/04/26 04:17:41;;;;;;;9.13;1.40;;;3.40;99.90;;;;;;5045566;28;20065;-78
2023/04/26 04:20:07;;;;;;;9.88;1.50;;;3.40;99.90;;;;;;5047835;28;20843;-80
2023/04/26 04:22:33;;;;;;;5.47;1.58;;;3.40;99.90;;;;;;5047594;28;20041;-78
2023/04/26 04:24:59;;;;;;;6.50;1.70;;;3.40;99.90;;;;;;5029514;28;20047;-78
2023/04/26 04:27:25;;;;;;;8.30;1.40;;;3.40;99.90;;;;;;5028261;28;20048;-80
2023/04/26 04:29:52;;;;;;;6.25;1.27;;;3.40;99.90;;;;;;5044751;28;20045;-80
2023/04/26 04:32:18;;;;;;;6.47;1.77;;;3.40;99.90;;;;;;5037101;28;20414;-80
2023/04/26 04:34:44;;;;;;;9.38;1.70;;;3.50;99.90;;;;;;5043510;28;20037;-81
2023/04/26 04:37:10;;;;;;;3.97;1.58;;;3.50;99.90;;;;;;5041509;28;20553;-80
2023/04/26 04:39:36;;;;;;;6.63;1.48;;;3.50;99.90;;;;;;5021733;28;20045;-78
2023/04/26 04:42:02;;;;;;;8.07;1.67;;;3.50;99.90;;;;;;5027982;28;20956;-78
2023/04/26 04:44:27;;;;;;;6.28;2.28;;;3.60;99.90;;;;;;5031382;28;20967;-79
2023/04/26 04:46:53;;;;;;;6.70;2.10;;;3.60;99.90;;;;;;5035793;28;20061;-79
2023/04/26 04:49:19;;;;;;;5.85;1.80;;;3.70;99.90;;;;;;5035300;28;20183;-78
2023/04/26 04:51:45;;;;;;;5.28;1.42;;;4.00;99.90;;;;;;5033558;28;20068;-79
2023/04/26 04:54:12;;;;;;;7.28;1.55;;;4.50;99.90;;;;;;5042297;28;20069;-79
2023/04/26 04:56:38;;;;;;;4.47;1.55;;;4.90;99.90;;;;;;5030970;28;20087;-79
2023/04/26 04:59:04;;;;;;;5.57;1.13;;;5.60;99.90;;;;;;5030765;28;20049;-79
2023/04/26 05:01:33;;;;;;;2.97;1.00;;;6.20;99.90;;;;;;5031536;28;20044;-80
2023/04/26 05:03:59;;;;;;;4.15;0.95;;;6.80;99.90;;;;;;5032465;28;20080;-80
2023/04/26 05:06:26;;;;;;;6.13;1.13;;;6.90;99.90;;;;;;5032414;28;20597;-79
2023/04/26 05:08:52;;;;;;;4.78;1.60;;;6.90;99.90;;;;;;5013638;28;20048;-79
2023/04/26 05:11:18;;;;;;;4.38;1.65;;;7.00;99.90;;;;;;5059420;28;20059;-79
2023/04/26 05:13:45;;;;;;;8.15;1.05;;;6.90;99.90;;;;;;5034783;28;20492;-79
2023/04/26 05:16:10;;;;;;;4.07;0.90;;;6.80;99.90;;;;;;5048860;28;20036;-79
2023/04/26 05:18:36;;;;;;;5.90;0.90;;;6.70;99.90;;;;;;5038192;28;20055;-78
2023/04/26 05:21:02;;;;;;;7.68;1.08;;;6.90;99.90;;;;;;5035565;28;20053;-79
2023/04/26 05:23:27;;;;;;;5.90;1.25;;;6.30;99.90;;;;;;5040499;28;20053;-79
2023/04/26 05:25:53;;;;;;;8.23;1.70;;;6.20;99.90;;;;;;5036949;28;20071;-79
2023/04/26 05:28:18;;;;;;;8.27;1.45;;;6.00;99.90;;;;;;5034349;28;20051;-78
2023/04/26 05:30:45;;;;;;;7.80;1.60;;;6.10;99.90;;;;;;5035492;28;20037;-79
2023/04/26 05:33:11;;;;;;;7.15;1.23;;;6.30;99.90;;;;;;5036721;28;20038;-80
2023/04/26 05:35:36;;;;;;;7.63;1.17;;;6.70;99.90;;;;;;5032629;28;20041;-79
2023/04/26 05:38:02;;;;;;;3.58;0.90;;;7.40;99.90;;;;;;5046617;28;20050;-80
2023/04/26 05:40:28;;;;;;;6.40;0.93;;;8.90;99.90;;;;;;5045656;28;20051;-80
2023/04/26 05:42:54;;;;;;;7.80;1.05;;;10.60;99.90;;;;;;5077177;28;20044;-80
2023/04/26 05:45:20;;;;;;;3.88;0.80;;;12.50;99.90;;;;;;5048313;28;20041;-81
2023/04/26 05:47:46;;;;;;;3.47;0.90;;;14.10;99.90;;;;;;5047273;28;20049;-80
2023/04/26 05:50:12;;;;;;;7.13;1.15;;;15.70;99.90;;;;;;5048355;28;21513;-80
2023/04/26 05:52:38;;;;;;;4.65;0.70;;;16.90;99.90;;;;;;5046874;28;20036;-80
2023/04/26 05:55:05;;;;;;;3.72;0.98;;;17.90;99.90;;;;;;5039457;28;20056;-81
2023/04/26 05:57:31;;;;;;;5.20;0.60;;;18.90;99.90;;;;;;5036398;28;20052;-80
2023/04/26 05:59:56;;;;;;;4.65;0.75;;;19.60;99.90;;;;;;5033720;28;20048;-81
2023/04/26 06:02:22;;;;;;;3.38;0.70;;;20.30;99.90;;;;;;5030453;28;20044;-83
2023/04/26 06:04:48;;;;;;;7.60;1.20;;;20.40;99.20;;;;;;5031537;28;21277;-82
2023/04/26 06:07:15;;;;;;;6.53;0.80;;;20.80;97.90;;;;;;5032351;28;20044;-80
2023/04/26 06:09:41;;;;;;;6.72;0.80;;;21.00;97.40;;;;;;5047701;28;20051;-80
2023/04/26 06:12:07;;;;;;;2.80;0.60;;;20.80;95.70;;;;;;5036276;28;20420;-80
2023/04/26 06:14:33;;;;;;;3.25;0.68;;;21.40;95.40;;;;;;5050903;28;20110;-80
2023/04/26 06:16:58;;;;;;;2.58;0.65;;;22.30;94.10;;;;;;5031201;28;20037;-81
2023/04/26 06:19:24;;;;;;;7.45;1.00;;;22.80;93.30;;;;;;5034774;28;20148;-80
2023/04/26 06:21:53;;;;;;;3.17;0.88;;;23.10;92.50;;;;;;5040963;28;20063;-80
2023/04/26 06:24:19;;;;;;;3.70;0.70;;;23.60;92.00;;;;;;5038527;28;20392;-80
2023/04/26 06:26:47;;;;;;;3.53;0.75;;;23.60;90.90;;;;;;5073120;28;20066;-82
2023/04/26 06:33:40;;;;;;;4.93;1.00;;;23.10;84.40;;;;;;5044505;28;20044;-80
2023/04/26 06:36:57;;;;;;;4.60;0.93;;;21.30;88.80;;;;;;5040417;28;20755;-80
2023/04/26 06:40:32;;;;;;;5.00;0.75;;;20.30;88.30;;;;;;5035953;28;20053;-80
2023/04/26 06:42:57;;;;;;;5.20;0.80;;;19.10;90.30;;;;;;5018299;28;20140;-81
2023/04/26 06:45:23;;;;;;;3.83;0.80;;;18.30;90.50;;;;;;5039906;28;20144;-81
2023/04/26 06:47:52;;;;;;;5.32;1.00;;;18.30;90.70;;;;;;5033937;28;20468;-81
2023/04/26 06:50:18;;;;;;;4.35;0.90;;;16.80;90.50;;;;;;5026778;28;20506;-82
2023/04/26 06:52:43;;;;;;;4.22;0.98;;;16.40;91.20;;;;;;5036234;28;20053;-81
2023/04/26 06:55:09;;;;;;;4.05;0.80;;;16.10;91.50;;;;;;5037803;28;20037;-81
2023/04/26 06:57:34;;;;;;;3.70;0.70;;;15.90;91.80;;;;;;5037257;28;20276;-81
2023/04/26 07:00:00;;;;;;;3.17;0.50;;;15.80;92.10;;;;;;5039095;28;20048;-80
2023/04/26 07:02:26;;;;;;;5.72;0.80;;;15.60;92.40;;;;;;5042947;28;20047;-79
2023/04/26 07:04:51;;;;;;;3.65;1.13;;;15.30;91.90;;;;;;5059643;28;20044;-79
2023/04/26 07:07:17;;;;;;;4.95;1.05;;;15.10;92.60;;;;;;5039335;28;20097;-81
2023/04/26 07:09:43;;;;;;;3.95;0.88;;;14.90;92.50;;;;;;5043349;28;20039;-81
2023/04/26 07:12:12;;;;;;;6.70;1.23;;;14.70;92.70;;;;;;5041983;28;20475;-82
2023/04/26 07:14:39;;;;;;;3.45;0.90;;;14.50;92.70;;;;;;5040102;28;20033;-80
2023/04/26 07:21:25;;;;;;;3.63;0.75;;;14.60;92.70;;;;;;5045340;28;20166;-80
2023/04/26 07:28:45;;;;;;;5.28;1.00;;;14.40;93.60;;;;;;5048762;28;20121;-80
2023/04/26 07:36:28;;;;;;;3.78;0.80;;;14.20;93.90;;;;;;5037744;28;20056;-81
2023/04/26 07:39:34;;;;;;;4.40;0.93;;;14.20;94.30;;;;;;5012956;28;20136;-81
2023/04/26 07:58:26;;;;;;;3.80;0.73;;;13.90;94.50;;;;;;5023223;28;20055;-80
2023/04/26 08:00:53;;;;;;;5.03;0.88;;;14.30;93.60;;;;;;5013144;28;20049;-80
2023/04/26 08:03:19;;;;;;;5.72;0.77;;;14.40;95.00;;;;;;5033660;28;20044;-80
2023/04/26 08:05:45;;;;;;;4.75;0.73;;;14.40;94.50;;;;;;5064397;28;20072;-82
2023/04/26 08:08:11;;;;;;;3.40;0.93;;;14.40;94.00;;;;;;5042160;28;20044;-81
2023/04/26 08:10:40;;;;;;;5.07;0.90;;;14.40;94.10;;;;;;5042490;28;20044;-80
2023/04/26 08:13:07;;;;;;;5.43;0.70;;;14.10;94.00;;;;;;5043388;28;20052;-80
2023/04/26 08:15:32;;;;;;;4.40;1.05;;;14.10;95.00;;;;;;5049516;28;20037;-81
2023/04/26 08:17:58;;;;;;;6.78;0.75;;;14.00;94.60;;;;;;5045199;28;20049;-79
2023/04/26 08:20:24;;;;;;;3.88;0.70;;;13.90;94.60;;;;;;5041596;28;20041;-80
2023/04/26 08:22:54;;;;;;;2.88;0.60;;;13.80;94.20;;;;;;5059896;28;20045;-80
2023/04/26 08:25:20;;;;;;;6.47;1.33;;;13.50;93.30;;;;;;5042172;28;20394;-80
2023/04/26 08:27:46;;;;;;;5.88;1.23;;;13.10;93.90;;;;;;5043145;28;20415;-80
2023/04/26 08:30:12;;;;;;;6.25;0.80;;;12.90;94.30;;;;;;5027516;28;20095;-80
2023/04/26 08:32:37;;;;;;;5.43;0.85;;;12.60;93.70;;;;;;5045298;28;20044;-80
2023/04/26 08:35:03;;;;;;;5.28;1.05;;;12.40;94.10;;;;;;5039233;28;20069;-80
2023/04/26 08:37:29;;;;;;;7.93;0.68;;;12.20;94.50;;;;;;5041093;28;20040;-80
2023/04/26 08:39:55;;;;;;;8.55;1.40;;;12.10;94.70;;;;;;5044246;28;20269;-80
2023/04/26 08:42:25;;;;;;;4.85;1.50;;;11.80;94.30;;;;;;5042365;28;20411;-80
2023/04/26 08:44:53;;;;;;;3.20;0.63;;;11.60;94.60;;;;;;5042344;28;20601;-81
2023/04/26 08:47:27;;;;;;;4.00;0.85;;;11.60;95.20;;;;;;5042764;28;20067;-80
2023/04/26 08:49:58;;;;;;;5.30;0.95;;;11.50;94.60;;;;;;5047982;28;20123;-79
2023/04/26 08:52:27;;;;;;;7.32;0.80;;;11.70;95.30;;;;;;5040599;28;20084;-79
2023/04/26 08:54:53;;;;;;;4.88;1.00;;;11.70;95.50;;;;;;5041600;28;20547;-80
2023/04/26 08:57:20;;;;;;;4.85;1.15;;;11.90;96.10;;;;;;5042540;28;20048;-79
2023/04/26 08:59:46;;;;;;;4.05;0.65;;;11.90;96.10;;;;;;5058355;28;20144;-79
2023/04/26 09:02:20;;;;;;;4.13;0.95;;;12.20;96.20;;;;;;5044918;28;20045;-80
2023/04/26 09:04:47;;;;;;;4.20;0.60;;;12.40;96.40;;;;;;5044065;28;20123;-79
2023/04/26 09:07:21;;;;;;;5.18;0.82;;;12.60;96.40;;;;;;5027328;28;20414;-79
2023/04/26 09:09:50;;;;;;;5.07;0.70;;;12.60;95.60;;;;;;5024567;28;20068;-80
2023/04/26 09:12:21;;;;;;;3.38;0.50;;;12.70;96.00;;;;;;5038206;28;20048;-79
2023/04/26 09:14:47;;;;;;;2.60;0.60;;;13.00;96.00;;;;;;5060634;28;20091;-79
2023/04/26 09:17:36;;;;;;;4.82;0.70;;;13.10;95.20;;;;;;5039394;28;20432;-79
2023/04/26 09:20:16;;;;;;;4.90;1.20;;;13.30;95.80;;;;;;5040571;28;20568;-79
2023/04/26 09:22:42;;;;;;;3.92;0.50;;;13.60;94.90;;;;;;5062256;28;20508;-80
2023/04/26 09:25:07;;;;;;;6.28;1.00;;;13.70;93.40;;;;;;5040971;28;20056;-79
2023/04/26 09:27:35;;;;;;;3.40;0.95;;;13.90;94.20;;;;;;5041839;28;20037;-79
2023/04/26 09:30:08;;;;;;;6.13;0.73;;;13.70;94.70;;;;;;5041866;28;20110;-79
2023/04/26 09:32:43;;;;;;;8.48;0.80;;;13.70;93.30;;;;;;5045902;28;20044;-79
2023/04/26 09:35:20;;;;;;;3.53;0.60;;;13.90;93.50;;;;;;5040765;28;20621;-79
2023/04/26 09:37:55;;;;;;;6.53;0.65;;;13.90;93.30;;;;;;5042921;28;20063;-79
2023/04/26 09:40:21;;;;;;;;;;;14.00;94.20;;;;;;5044081;28;20091;-80
2023/04/26 09:42:59;;;;;;;3.50;1.10;;;14.00;93.30;;;;;;5044666;28;19970;-79
2023/04/26 09:45:26;;;;;;;5.35;0.77;;;13.80;94.00;;;;;;5035765;28;20060;-79
2023/04/26 09:47:52;;;;;;;4.03;0.60;;;13.80;94.30;;;;;;5041665;28;20041;-80
2023/04/26 09:50:38;;;;;;;2.33;0.77;;;13.90;93.90;;;;;;5042446;28;20043;-79
2023/04/26 09:53:04;;;;;;;2.17;0.40;;;14.00;94.10;;;;;;5036722;28;20081;-80
2023/04/26 09:55:30;;;;;;;5.47;1.05;;;14.00;94.10;;;;;;5042008;28;20037;-79
2023/04/26 09:57:59;;;;;;;8.90;1.08;;;13.90;94.10;;;;;;5042891;28;20379;-79
2023/04/26 10:00:26;;;;;;;4.28;0.73;;;13.60;93.50;;;;;;5035134;28;20049;-81
2023/04/26 10:02:54;;;;;;;4.70;0.82;;;13.10;93.80;;;;;;5061287;28;20041;-81
2023/04/26 10:05:20;;;;;;;4.35;1.15;;;12.60;94.90;;;;;;5026917;28;20439;-81
2023/04/26 10:07:47;;;;;;;6.32;1.13;;;12.20;95.30;;;;;;5041384;28;20863;-81
2023/04/26 10:10:13;;;;;;;6.05;1.48;;;11.80;95.60;;;;;;5041810;28;20060;-81
2023/04/26 10:12:42;;;;;;;5.35;0.93;;;11.50;95.80;;;;;;5040488;28;20037;-81
2023/04/26 10:15:10;;;;;;;6.72;0.88;;;11.20;96.60;;;;;;5045353;28;20036;-81
2023/04/26 10:17:37;;;;;;;6.72;1.23;;;10.90;96.60;;;;;;5041282;28;20155;-81
2023/04/26 10:20:05;;;;;;;5.13;1.15;;;10.70;97.10;;;;;;5041225;28;20068;-81
2023/04/26 10:22:35;;;;;;;4.80;1.00;;;10.50;97.10;;;;;;5036590;28;20462;-81
2023/04/26 10:25:01;;;;;;;3.35;1.08;;;10.30;97.60;;;;;;5040271;28;20052;-81
2023/04/26 10:27:47;;;;;;;5.18;1.23;;;10.20;97.60;;;;;;5042322;28;20041;-80
2023/04/26 10:30:16;;;;;;;5.55;0.80;;;10.00;97.90;;;;;;5050851;28;20060;-82
2023/04/26 10:32:54;;;;;;;8.05;0.98;;;10.00;97.90;;;;;;5043314;28;20052;-81
2023/04/26 10:35:21;;;;;;;5.40;0.52;;;10.00;98.00;;;;;;5041747;28;20037;-81
2023/04/26 10:37:59;;;;;;;8.90;1.00;;;9.90;97.50;;;;;;5039533;28;20127;-81
2023/04/26 10:40:44;;;;;;;7.50;1.58;;;9.90;98.20;;;;;;5036712;28;20053;-80
2023/04/26 10:43:10;;;;;;;5.40;1.00;;;10.00;99.00;;;;;;5056809;28;20041;-80
2023/04/26 10:45:37;;;;;;;5.82;1.52;;;10.10;98.50;;;;;;5045438;28;20519;-80
2023/04/26 10:48:29;;;;;;;10.63;1.40;;;10.20;98.50;;;;;;5047397;28;20076;-80
2023/04/26 10:51:00;;;;;;;10.02;1.23;;;10.40;98.80;;;;;;5047465;28;20045;-79
2023/04/26 10:53:27;;;;;;;7.13;1.00;;;10.80;99.40;;;;;;5046539;28;20399;-80
2023/04/26 10:55:53;;;;;;;4.72;0.60;;;11.10;99.30;;;;;;5040912;28;20076;-80
2023/04/26 10:58:34;;;;;;;6.60;1.33;;;11.30;98.70;;;;;;5047805;28;20051;-83
2023/04/26 11:01:16;;;;;;;3.35;0.95;;;11.40;97.10;;;;;;5042153;28;20095;-80
2023/04/26 11:04:00;;;;;;;4.90;0.90;;;12.00;97.70;;;;;;5050965;28;20125;-81
2023/04/26 11:06:26;;;;;;;2.90;0.40;;;11.80;97.50;;;;;;5048950;28;20411;-81
2023/04/26 11:08:52;;;;;;;4.18;1.00;;;12.10;97.30;;;;;;5058737;28;20052;-81
2023/04/26 11:11:18;;;;;;;3.45;0.90;;;12.20;96.60;;;;;;5046044;28;20041;-80
2023/04/26 11:13:45;;;;;;;3.67;1.00;;;12.40;96.20;;;;;;5047233;28;20037;-81
2023/04/26 11:16:11;;;;;;;4.13;1.13;;;12.50;97.00;;;;;;5046491;28;20745;-81
2023/04/26 11:18:40;;;;;;;7.78;0.95;;;12.50;96.60;;;;;;5043207;28;20045;-81
2023/04/26 11:21:07;;;;;;;7.63;1.35;;;12.60;95.70;;;;;;5029395;28;20045;-80
2023/04/26 11:23:34;;;;;;;5.85;1.10;;;12.70;95.80;;;;;;5044256;28;20037;-81
2023/04/26 11:26:04;;;;;;;3.67;1.00;;;12.60;94.80;;;;;;5032004;28;20037;-81
2023/04/26 11:28:34;;;;;;;5.70;1.05;;;12.60;95.50;;;;;;5042700;28;20044;-82
2023/04/26 11:30:59;;;;;;;4.05;1.13;;;12.80;96.10;;;;;;5024183;28;20376;-81
2023/04/26 11:33:25;;;;;;;5.93;1.40;;;13.20;96.00;;;;;;5045084;28;20051;-81
2023/04/26 11:35:52;;;;;;;3.67;0.90;;;13.60;96.00;;;;;;5033294;28;20116;-82
2023/04/26 11:38:23;;;;;;;4.00;0.85;;;13.80;95.30;;;;;;5031036;28;20041;-81
2023/04/26 11:40:59;;;;;;;3.33;0.90;;;14.20;94.00;;;;;;5045516;28;20119;-81
2023/04/26 11:43:31;;;;;;;4.65;0.82;;;14.20;94.10;;;;;;5029114;28;20044;-81
2023/04/26 11:46:00;;;;;;;8.32;0.98;;;14.20;94.00;;;;;;5048507;28;20051;-82
2023/04/26 11:48:28;;;;;;;3.50;0.98;;;14.00;93.90;;;;;;5046293;28;20403;-82
2023/04/26 11:51:41;;;;;;;6.10;1.58;;;13.70;94.40;;;;;;5043757;28;20052;-82
2023/04/26 11:54:28;;;;;;;9.48;1.05;;;13.40;94.70;;;;;;5066264;28;20048;-82
2023/04/26 11:56:54;;;;;;;5.97;1.17;;;13.00;95.30;;;;;;5043810;28;20061;-82
2023/04/26 11:59:24;;;;;;;10.30;1.80;;;12.70;95.70;;;;;;5062288;28;20067;-83
2023/04/26 12:01:53;;;;;;;6.35;1.38;;;12.40;96.40;;;;;;5051988;28;20037;-82
2023/04/26 12:04:26;;;;;;;6.07;1.00;;;12.00;96.00;;;;;;5046451;28;20075;-81
2023/04/26 12:06:56;;;;;;;5.50;1.15;;;11.80;95.60;;;;;;5045205;28;20076;-83
2023/04/26 12:09:29;;;;;;;5.35;1.20;;;11.60;96.10;;;;;;5050091;28;20086;-82
2023/04/26 12:11:59;;;;;;;3.47;1.05;;;11.60;97.10;;;;;;5047033;28;20052;-82
2023/04/26 12:14:32;;;;;;;5.25;1.15;;;11.60;97.40;;;;;;5042124;28;20110;-82
2023/04/26 12:17:02;;;;;;;4.80;1.02;;;11.60;97.40;;;;;;5044380;28;20060;-81
2023/04/26 12:19:37;;;;;;;4.60;1.10;;;11.60;97.20;;;;;;5048635;28;20059;-81
2023/04/26 12:22:03;;;;;;;;;;;11.50;97.00;;;;;;5064091;28;20045;-82
2023/04/26 12:24:33;;;;;;;8.40;1.33;;;11.50;97.30;;;;;;5043556;28;19924;-81
2023/04/26 12:27:01;;;;;;;6.63;1.33;;;11.40;97.10;;;;;;5035844;28;20050;-81
2023/04/26 12:29:29;;;;;;;8.68;1.60;;;11.30;97.30;;;;;;5013621;28;20079;-81
2023/04/26 12:31:58;;;;;;;9.40;1.67;;;11.10;98.20;;;;;;5045681;28;20044;-81
2023/04/26 12:34:23;;;;;;;3.53;1.40;;;11.00;98.70;;;;;;5041231;28;20060;-81
2023/04/26 12:36:49;;;;;;;7.80;1.55;;;10.90;99.10;;;;;;5041014;28;20459;-81
2023/04/26 12:39:15;;;;;;;6.13;1.55;;;10.80;99.00;;;;;;5039772;28;20050;-81
2023/04/26 12:41:42;;;;;;;4.15;1.33;;;10.80;99.00;;;;;;5037628;28;20083;-81
2023/04/26 12:44:08;;;;;;;5.55;1.30;;;10.90;99.90;;;;;;5065082;28;20040;-80
2023/04/26 12:46:34;;;;;;;9.85;1.58;;;10.80;99.90;;;;;;5048067;28;20084;-81
2023/04/26 12:49:00;;;;;;;6.70;1.23;;;10.80;99.90;;;;;;5049150;28;20060;-81
2023/04/26 12:51:26;;;;;;;7.47;2.53;;;10.70;99.90;;;;;;5047677;28;20044;-81
2023/04/26 12:53:51;;;;;;;8.23;1.80;;;10.70;99.90;;;;;;5049096;28;20147;-81
2023/04/26 12:56:17;;;;;;;6.20;1.58;;;10.80;99.90;;;;;;5045295;28;20051;-81
2023/04/26 12:58:43;;;;;;;4.70;1.38;;;10.60;99.90;;;;;;5078299;28;20037;-81
2023/04/26 13:01:09;;;;;;;3.80;1.10;;;10.70;99.90;;;;;;5042946;28;20553;-81
2023/04/26 13:03:35;;;;;;;4.78;1.02;;;10.70;99.90;;;;;;5042032;28;20036;-81
2023/04/26 13:06:01;;;;;;;8.05;1.10;;;10.60;99.90;;;;;;5044842;28;20578;-81
2023/04/26 13:08:27;;;;;;;5.95;1.20;;;10.70;99.90;;;;;;5044460;28;20089;-81
2023/04/26 13:10:53;;;;;;;10.25;3.03;;;10.70;99.90;;;;;;5075352;28;20088;-81
2023/04/26 13:13:18;;;;;;;8.20;2.15;;;10.60;99.90;;;;;;5074037;28;20064;-81
2023/04/26 13:15:44;;;;;;;6.63;1.42;;;10.70;99.90;;;;;;5043043;28;20033;-82
2023/04/26 13:18:10;;;;;;;6.95;2.20;;;10.70;99.50;;;;;;5040738;28;20091;-82
2023/04/26 13:20:35;;;;;;;8.52;0.82;;;10.70;99.60;;;;;;5042064;28;20608;-81
2023/04/26 13:23:01;;;;;;;6.57;1.20;;;10.70;99.50;;;;;;5041309;28;20043;-81
2023/04/26 13:25:27;;;;;;;6.05;1.00;;;10.80;99.00;;;;;;5039248;28;20088;-81
2023/04/26 13:27:54;;;;;;;6.63;1.13;;;10.90;99.10;;;;;;5040550;28;20075;-81
2023/04/26 13:30:20;;;;;;;6.82;1.27;;;11.00;98.40;;;;;;5058281;28;20503;-82